createdAt,value
2019-05-22T00:02:37.819Z,43.70
2019-05-22T00:05:13.988Z,43.48
2019-05-22T00:07:45.507Z,43.33
2019-05-22T00:10:22.888Z,42.75
2019-05-22T00:12:53.826Z,44.63
2019-05-22T00:15:24.296Z,46.92
2019-05-22T00:17:54.034Z,44.00
2019-05-22T00:20:26.758Z,54.20
2019-05-22T00:25:28.447Z,42.38
2019-05-22T00:27:59.424Z,42.30
2019-05-22T00:30:32.804Z,45.28
2019-05-22T00:33:02.557Z,50.08
2019-05-22T00:35:33.146Z,41.03
2019-05-22T00:38:06.718Z,46.68
2019-05-22T00:40:42.137Z,45.00
2019-05-22T00:43:14.184Z,42.93
2019-05-22T00:45:48.882Z,46.05
2019-05-22T00:48:24.898Z,47.78
2019-05-22T00:51:09.997Z,47.30
2019-05-22T00:53:58.296Z,41.77
2019-05-22T00:56:35.995Z,49.90
2019-05-22T00:59:11.484Z,46.33
2019-05-22T01:01:47.300Z,42.55
2019-05-22T01:04:22.116Z,43.50
2019-05-22T01:06:54.299Z,50.25
2019-05-22T01:09:26.698Z,56.18
2019-05-22T01:11:55.753Z,48.58
2019-05-22T01:14:41.918Z,47.65
2019-05-22T01:16:59.476Z,54.10
2019-05-22T01:19:30.111Z,47.73
2019-05-22T01:22:01.942Z,47.13
2019-05-22T01:24:32.618Z,50.95
2019-05-22T01:27:01.907Z,50.28
2019-05-22T01:29:32.531Z,52.73
2019-05-22T01:32:25.944Z,46.00
2019-05-22T01:34:56.429Z,48.23
2019-05-22T01:37:27.396Z,49.38
2019-05-22T01:40:04.311Z,48.52
2019-05-22T01:42:41.294Z,46.18
2019-05-22T01:45:13.619Z,49.05
2019-05-22T01:50:46.981Z,44.67
2019-05-22T01:53:23.493Z,46.80
2019-05-22T01:55:57.893Z,46.48
2019-05-22T01:58:30.511Z,45.38
2019-05-22T02:01:02.359Z,49.10
2019-05-22T02:03:33.611Z,49.48
2019-05-22T02:06:06.408Z,49.42
2019-05-22T02:08:43.582Z,51.25
2019-05-22T02:14:07.157Z,50.60
2019-05-22T02:16:37.605Z,50.03
2019-05-22T02:19:08.070Z,48.42
2019-05-22T02:21:37.600Z,42.38
2019-05-22T02:24:09.288Z,46.10
2019-05-22T02:26:41.558Z,42.75
2019-05-22T02:29:12.665Z,43.00
2019-05-22T02:31:43.551Z,43.00
2019-05-22T02:34:14.509Z,46.70
2019-05-22T02:36:45.257Z,44.65
2019-05-22T02:39:23.465Z,45.38
2019-05-22T02:42:04.628Z,45.05
2019-05-22T02:44:34.517Z,45.58
2019-05-22T02:47:18.328Z,45.10
2019-05-22T02:49:36.767Z,46.28
2019-05-22T02:54:39.378Z,49.10
2019-05-22T02:57:11.117Z,46.85
2019-05-22T02:59:42.597Z,48.28
2019-05-22T03:05:02.809Z,46.08
2019-05-22T03:10:22.017Z,49.95
2019-05-22T03:12:53.904Z,51.25
2019-05-22T03:15:26.637Z,48.65
2019-05-22T03:20:29.311Z,45.23
2019-05-22T03:23:38.481Z,45.95
2019-05-22T03:26:12.697Z,47.43
2019-05-22T03:28:43.403Z,46.58
2019-05-22T03:31:15.242Z,48.17
2019-05-22T03:33:44.975Z,47.25
2019-05-22T03:36:18.331Z,44.88
2019-05-22T03:38:48.666Z,48.35
2019-05-22T03:41:18.853Z,48.85
2019-05-22T03:43:50.637Z,45.35
2019-05-22T03:46:41.531Z,47.88
2019-05-22T03:49:30.156Z,47.62
2019-05-22T03:51:50.063Z,47.10
2019-05-22T03:54:19.637Z,41.55
2019-05-22T03:59:18.129Z,41.63
2019-05-22T04:01:47.108Z,43.55
2019-05-22T04:04:36.654Z,44.67
2019-05-22T04:07:11.118Z,42.00
2019-05-22T04:09:43.508Z,40.78
2019-05-22T04:12:14.801Z,44.60
2019-05-22T04:14:45.978Z,38.88
2019-05-22T04:17:15.596Z,42.70
2019-05-22T04:22:16.895Z,44.33
2019-05-22T04:24:48.439Z,41.80
2019-05-22T04:27:18.060Z,42.40
2019-05-22T04:29:50.591Z,44.38
2019-05-22T04:32:32.451Z,47.20
2019-05-22T04:35:04.663Z,44.90
2019-05-22T04:37:35.646Z,43.40
2019-05-22T04:40:54.901Z,43.95
2019-05-22T04:43:30.452Z,38.83
2019-05-22T04:46:05.636Z,43.70
2019-05-22T04:51:25.602Z,44.40
2019-05-22T04:53:55.892Z,45.38
2019-05-22T04:56:27.579Z,47.80
2019-05-22T04:58:59.742Z,40.90
2019-05-22T05:03:58.283Z,41.92
2019-05-22T05:06:29.387Z,38.53
2019-05-22T05:08:59.854Z,43.73
2019-05-22T05:11:29.589Z,38.05
2019-05-22T05:16:26.899Z,42.43
2019-05-22T05:18:56.488Z,39.75
2019-05-22T05:21:25.842Z,41.77
2019-05-22T05:26:26.334Z,39.85
2019-05-22T05:28:56.574Z,33.80
2019-05-22T05:34:21.001Z,37.40
2019-05-22T05:36:51.598Z,33.48
2019-05-22T05:40:26.941Z,34.65
2019-05-22T05:42:56.914Z,31.93
2019-05-22T05:45:27.763Z,34.05
2019-05-22T05:50:38.907Z,31.45
2019-05-22T05:52:59.562Z,35.05
2019-05-22T05:55:49.117Z,34.13
2019-05-22T05:58:30.427Z,33.48
2019-05-22T06:01:27.712Z,36.03
2019-05-22T06:03:59.839Z,32.50
2019-05-22T06:07:18.918Z,30.60
2019-05-22T06:10:38.940Z,28.98
2019-05-22T06:13:08.829Z,35.25
2019-05-22T06:17:04.423Z,29.37
2019-05-22T06:19:40.603Z,28.90
2019-05-22T06:22:10.946Z,28.27
2019-05-22T06:25:03.636Z,30.60
2019-05-22T06:27:54.836Z,31.23
2019-05-22T06:30:47.136Z,29.02
2019-05-22T06:33:44.803Z,28.95
2019-05-22T06:36:20.576Z,30.27
2019-05-22T06:39:14.590Z,28.52
2019-05-22T06:41:45.967Z,28.10
2019-05-22T06:44:42.993Z,27.95
2019-05-22T06:53:08.898Z,29.30
2019-05-22T06:55:26.619Z,29.90
2019-05-22T06:57:55.695Z,27.13
2019-05-22T07:00:26.597Z,29.70
2019-05-22T07:02:55.951Z,26.70
2019-05-22T07:05:25.324Z,26.50
2019-05-22T07:07:56.118Z,27.95
2019-05-22T07:10:26.648Z,26.65
2019-05-22T07:12:58.441Z,23.00
2019-05-22T07:15:41.383Z,24.90
2019-05-22T07:18:13.013Z,27.70
2019-05-22T07:23:02.896Z,24.65
2019-05-22T07:25:34.794Z,24.70
2019-05-22T07:28:06.439Z,27.15
2019-05-22T07:30:36.129Z,25.97
2019-05-22T07:33:07.681Z,26.05
2019-05-22T07:35:56.193Z,25.43
2019-05-22T07:38:08.977Z,24.52
2019-05-22T07:40:38.303Z,25.43
2019-05-22T07:43:07.709Z,24.00
2019-05-22T07:45:39.773Z,23.15
2019-05-22T07:48:13.247Z,24.27
2019-05-22T07:53:16.533Z,22.05
2019-05-22T07:55:48.724Z,29.10
2019-05-22T08:00:58.586Z,21.07
2019-05-22T08:03:30.296Z,20.45
2019-05-22T08:06:00.409Z,21.05
2019-05-22T08:08:34.520Z,20.32
2019-05-22T08:11:04.907Z,20.65
2019-05-22T08:13:34.915Z,22.42
2019-05-22T08:16:05.405Z,21.75
2019-05-22T08:18:36.750Z,21.20
2019-05-22T08:23:34.577Z,19.80
2019-05-22T08:31:04.855Z,21.55
2019-05-22T08:33:35.962Z,21.60
2019-05-22T08:36:06.287Z,19.17
2019-05-22T08:38:36.688Z,19.37
2019-05-22T08:44:03.168Z,16.45
2019-05-22T08:46:12.440Z,15.80
2019-05-22T08:48:48.164Z,18.52
2019-05-22T08:51:14.167Z,16.37
2019-05-22T08:53:48.027Z,14.13
2019-05-22T08:56:15.966Z,15.68
2019-05-22T08:58:45.746Z,15.13
2019-05-22T09:03:44.718Z,16.15
2019-05-22T09:08:43.792Z,15.00
2019-05-22T09:11:13.304Z,13.95
2019-05-22T09:13:42.745Z,13.78
2019-05-22T09:18:42.127Z,12.18
2019-05-22T09:21:12.837Z,11.95
2019-05-22T09:23:43.823Z,12.80
2019-05-22T09:26:13.729Z,11.55
2019-05-22T09:31:12.070Z,12.70
2019-05-22T09:33:41.455Z,11.33
2019-05-22T09:36:12.627Z,11.33
2019-05-22T09:38:43.595Z,12.58
2019-05-22T09:41:12.997Z,14.20
2019-05-22T09:43:42.928Z,12.25
2019-05-22T09:46:14.502Z,13.45
2019-05-22T09:51:13.056Z,13.85
2019-05-22T09:53:43.353Z,13.70
2019-05-22T09:56:14.406Z,13.30
2019-05-22T09:58:43.657Z,12.93
2019-05-22T10:03:43.419Z,12.07
2019-05-22T10:06:13.527Z,13.98
2019-05-22T10:08:43.417Z,15.53
2019-05-22T10:11:12.942Z,12.65
2019-05-22T10:13:42.067Z,15.25
2019-05-22T10:16:11.952Z,15.35
2019-05-22T10:18:42.290Z,12.55
2019-05-22T10:21:12.586Z,11.33
2019-05-22T10:23:43.549Z,11.05
2019-05-22T10:26:12.910Z,11.50
2019-05-22T10:31:11.849Z,9.88
2019-05-22T10:33:42.477Z,11.18
2019-05-22T10:36:12.049Z,14.35
2019-05-22T10:38:42.433Z,9.65
2019-05-22T10:43:43.175Z,10.15
2019-05-22T10:46:13.659Z,8.80
2019-05-22T10:51:13.541Z,9.60
2019-05-22T10:53:43.948Z,9.13
2019-05-22T10:56:13.461Z,11.90
2019-05-22T10:58:43.397Z,10.68
2019-05-22T11:01:13.565Z,11.22
2019-05-22T11:06:12.607Z,11.60
2019-05-22T11:11:12.421Z,9.88
2019-05-22T11:14:00.170Z,9.48
2019-05-22T11:16:15.230Z,9.15
2019-05-22T11:18:45.444Z,11.40
2019-05-22T11:23:51.805Z,8.08
2019-05-22T11:26:15.571Z,8.68
2019-05-22T11:35:31.384Z,11.45
2019-05-22T11:38:00.831Z,9.08
2019-05-22T11:40:30.428Z,9.78
2019-05-22T11:42:59.739Z,10.88
2019-05-22T11:45:29.225Z,9.80
2019-05-22T11:47:58.599Z,11.70
2019-05-22T11:50:29.465Z,11.35
2019-05-22T11:54:37.540Z,10.15
2019-05-22T11:57:06.576Z,10.08
2019-05-22T11:59:36.494Z,10.93
2019-05-22T12:02:07.585Z,10.75
2019-05-22T12:04:47.930Z,9.88
2019-05-22T12:07:11.183Z,11.00
2019-05-22T12:09:41.480Z,8.70
2019-05-22T12:12:11.544Z,9.25
2019-05-22T12:14:41.414Z,9.48
2019-05-22T12:17:12.137Z,10.60
2019-05-22T12:19:42.302Z,9.25
2019-05-22T12:22:11.967Z,8.88
2019-05-22T12:24:42.743Z,7.47
2019-05-22T12:27:12.410Z,8.00
2019-05-22T12:29:43.950Z,8.30
2019-05-22T12:32:14.557Z,7.50
2019-05-22T12:34:44.091Z,7.10
2019-05-22T12:37:14.482Z,8.78
2019-05-22T12:39:45.749Z,8.00
2019-05-22T12:42:19.116Z,8.33
2019-05-22T12:44:49.738Z,8.45
2019-05-22T12:47:18.938Z,10.05
2019-05-22T12:49:49.218Z,10.55
2019-05-22T12:52:19.573Z,11.60
2019-05-22T12:54:52.880Z,10.48
2019-05-22T12:57:21.751Z,10.85
2019-05-22T13:02:23.464Z,8.00
2019-05-22T13:04:54.119Z,8.65
2019-05-22T13:07:23.788Z,9.88
2019-05-22T13:12:22.100Z,9.55
2019-05-22T13:15:07.925Z,9.30
2019-05-22T13:17:25.619Z,10.30
2019-05-22T13:19:56.290Z,9.18
2019-05-22T13:22:26.928Z,9.53
2019-05-22T13:24:57.447Z,9.93
2019-05-22T13:27:26.839Z,8.88
2019-05-22T13:29:56.935Z,11.73
2019-05-22T13:32:27.615Z,11.25
2019-05-22T13:34:56.463Z,10.18
2019-05-22T13:37:25.783Z,7.75
2019-05-22T13:39:55.769Z,9.00
2019-05-22T13:42:26.579Z,9.03
2019-05-22T13:44:56.689Z,8.93
2019-05-22T13:49:55.140Z,9.78
2019-05-22T13:52:50.630Z,9.93
2019-05-22T13:55:20.828Z,9.48
2019-05-22T13:57:50.837Z,10.68
2019-05-22T14:00:22.656Z,9.90
2019-05-22T14:05:24.801Z,10.63
2019-05-22T14:07:54.002Z,11.30
2019-05-22T14:10:27.483Z,8.85
2019-05-22T14:12:58.035Z,9.08
2019-05-22T14:15:47.366Z,10.03
2019-05-22T14:17:59.744Z,8.75
2019-05-22T14:20:29.490Z,6.60
2019-05-22T14:22:58.764Z,8.08
2019-05-22T14:25:29.682Z,6.40
2019-05-22T14:27:59.885Z,6.70
2019-05-22T14:30:30.427Z,8.68
2019-05-22T14:33:04.121Z,6.37
2019-05-22T14:35:47.609Z,8.40
2019-05-22T14:38:06.640Z,8.38
2019-05-22T14:40:37.862Z,6.12
2019-05-22T14:43:07.773Z,7.35
2019-05-22T14:45:37.565Z,6.25
2019-05-22T14:48:07.867Z,6.33
2019-05-22T14:50:37.927Z,6.95
2019-05-22T14:53:07.308Z,6.45
2019-05-22T14:55:38.817Z,5.55
2019-05-22T14:58:09.481Z,10.38
2019-05-22T15:00:39.706Z,7.90
2019-05-22T15:05:38.555Z,7.10
2019-05-22T15:08:08.596Z,7.58
2019-05-22T15:13:07.975Z,10.10
2019-05-22T15:15:40.523Z,10.58
2019-05-22T15:18:08.915Z,10.10
2019-05-22T15:20:46.539Z,8.38
2019-05-22T15:23:15.740Z,10.15
2019-05-22T15:25:44.999Z,10.82
2019-05-22T15:28:15.597Z,9.00
2019-05-22T15:30:46.697Z,8.30
2019-05-22T15:33:16.514Z,10.10
2019-05-22T15:35:46.423Z,7.25
2019-05-22T15:38:16.505Z,7.53
2019-05-22T15:40:46.402Z,8.73
2019-05-22T15:43:16.548Z,7.17
2019-05-22T15:48:27.455Z,9.18
2019-05-22T15:51:05.520Z,7.15
2019-05-22T15:53:38.565Z,6.10
2019-05-22T15:56:10.994Z,6.87
2019-05-22T15:58:51.732Z,6.47
2019-05-22T16:01:25.639Z,7.55
2019-05-22T16:03:57.595Z,5.60
2019-05-22T16:06:28.410Z,6.28
2019-05-22T16:08:58.886Z,8.83
2019-05-22T16:11:30.816Z,11.15
2019-05-22T16:14:01.351Z,8.60
2019-05-22T16:16:32.607Z,10.45
2019-05-22T16:19:06.655Z,9.63
2019-05-22T16:21:43.623Z,9.95
2019-05-22T16:24:13.519Z,8.40
2019-05-22T16:26:42.982Z,7.55
2019-05-22T16:29:14.595Z,7.75
2019-05-22T16:31:46.496Z,7.83
2019-05-22T16:34:17.647Z,7.90
2019-05-22T16:39:17.694Z,8.55
2019-05-22T16:44:16.662Z,6.50
2019-05-22T16:46:47.598Z,8.48
2019-05-22T16:51:48.300Z,7.17
2019-05-22T16:54:20.948Z,5.92
2019-05-22T16:56:52.169Z,7.40
2019-05-22T17:00:01.774Z,5.95
2019-05-22T17:02:34.077Z,5.87
2019-05-22T17:05:07.923Z,7.45
2019-05-22T17:07:39.478Z,6.37
2019-05-22T17:10:11.013Z,6.62
2019-05-22T17:12:41.579Z,5.08
2019-05-22T17:15:16.942Z,5.65
2019-05-22T17:17:46.564Z,5.50
2019-05-22T17:20:19.834Z,5.97
2019-05-22T17:22:49.140Z,8.40
2019-05-22T17:25:20.549Z,5.67
2019-05-22T17:27:50.581Z,5.05
2019-05-22T17:37:54.630Z,5.15
2019-05-22T17:40:24.901Z,5.47
2019-05-22T17:42:55.507Z,6.12
2019-05-22T17:45:28.424Z,6.47
2019-05-22T17:48:01.341Z,5.65
2019-05-22T17:50:30.642Z,6.20
2019-05-22T17:53:00.846Z,4.75
2019-05-22T17:55:30.654Z,7.50
2019-05-22T17:58:00.246Z,5.55
2019-05-22T18:00:37.129Z,8.75
2019-05-22T18:03:19.462Z,5.50
2019-05-22T18:05:49.927Z,6.22
2019-05-22T18:08:20.111Z,7.22
2019-05-22T18:10:50.610Z,6.70
2019-05-22T18:15:49.727Z,5.72
2019-05-22T18:23:17.538Z,5.58
2019-05-22T18:25:46.435Z,6.50
2019-05-22T18:28:16.556Z,8.00
2019-05-22T18:30:46.567Z,6.53
2019-05-22T18:33:16.492Z,6.10
2019-05-22T18:35:47.305Z,7.97
2019-05-22T18:38:17.301Z,5.95
2019-05-22T18:40:47.375Z,8.80
2019-05-22T18:45:48.505Z,7.20
2019-05-22T18:48:17.738Z,5.65
2019-05-22T18:50:47.868Z,6.40
2019-05-22T18:53:17.473Z,6.53
2019-05-22T18:55:47.754Z,6.35
2019-05-22T18:58:17.588Z,6.60
2019-05-22T19:03:16.595Z,7.08
2019-05-22T19:08:16.508Z,7.65
2019-05-22T19:10:46.017Z,7.80
2019-05-22T19:13:15.139Z,8.05
2019-05-22T19:19:38.415Z,7.60
2019-05-22T19:22:07.690Z,8.70
2019-05-22T19:24:37.197Z,8.98
2019-05-22T19:27:06.774Z,9.15
2019-05-22T19:29:36.168Z,10.05
2019-05-22T19:32:05.441Z,9.60
2019-05-22T19:34:35.533Z,9.65
2019-05-22T19:37:04.542Z,10.65
2019-05-22T19:39:34.253Z,9.40
2019-05-22T19:42:05.698Z,8.98
2019-05-22T19:44:35.700Z,9.65
2019-05-22T19:47:06.474Z,10.70
2019-05-22T19:49:35.943Z,9.78
2019-05-22T19:52:10.708Z,9.85
2019-05-22T19:54:40.929Z,10.72
2019-05-22T19:57:11.920Z,11.22
2019-05-22T19:59:41.148Z,8.83
2019-05-22T20:02:14.302Z,9.33
2019-05-22T20:07:13.643Z,10.20
2019-05-22T20:09:45.120Z,10.38
2019-05-22T20:12:14.928Z,9.85
2019-05-22T20:14:44.324Z,9.33
2019-05-22T20:17:15.117Z,9.30
2019-05-22T20:19:45.528Z,11.45
2019-05-22T20:22:15.307Z,9.98
2019-05-22T20:24:45.308Z,11.35
2019-05-22T20:27:15.186Z,12.05
2019-05-22T20:29:46.495Z,11.93
2019-05-22T20:32:17.625Z,12.07
2019-05-22T20:34:48.838Z,14.40
2019-05-22T20:37:18.567Z,14.80
2019-05-22T20:42:18.319Z,15.35
2019-05-22T20:44:48.473Z,14.80
2019-05-22T20:47:24.696Z,15.32
2019-05-22T20:49:54.567Z,13.90
2019-05-22T20:52:24.323Z,15.35
2019-05-22T20:54:54.089Z,14.30
2019-05-22T20:57:25.746Z,14.05
2019-05-22T20:59:55.116Z,13.43
2019-05-22T21:02:26.639Z,14.80
2019-05-22T21:04:56.450Z,15.83
2019-05-22T21:07:37.654Z,15.43
2019-05-22T21:10:08.321Z,15.05
2019-05-22T21:12:38.703Z,17.32
2019-05-22T21:17:39.202Z,15.18
2019-05-22T21:20:13.141Z,16.40
2019-05-22T21:22:42.973Z,17.00
2019-05-22T21:25:13.020Z,16.25
2019-05-22T21:27:42.822Z,15.30
2019-05-22T21:30:14.186Z,17.45
2019-05-22T21:32:47.311Z,16.95
2019-05-22T21:35:20.766Z,17.73
2019-05-22T21:37:50.038Z,15.43
2019-05-22T21:40:23.029Z,16.57
2019-05-22T21:42:54.934Z,18.10
2019-05-22T21:45:24.925Z,17.90
2019-05-22T21:47:54.724Z,18.62
2019-05-22T21:50:25.311Z,17.82
2019-05-22T21:52:54.821Z,17.70
2019-05-22T21:55:24.951Z,19.35
2019-05-22T21:57:56.083Z,18.57
2019-05-22T22:00:48.384Z,18.12
2019-05-22T22:03:22.584Z,19.45
2019-05-22T22:05:51.942Z,19.40
2019-05-22T22:08:22.136Z,21.52
2019-05-22T22:10:51.827Z,21.62
2019-05-22T22:13:27.074Z,19.00
2019-05-22T22:15:56.956Z,20.30
2019-05-22T22:18:27.181Z,19.42
2019-05-22T22:20:57.503Z,19.75
2019-05-22T22:23:28.917Z,20.57
2019-05-22T22:25:59.757Z,21.70
2019-05-22T22:28:30.461Z,19.57
2019-05-22T22:34:46.140Z,21.05
2019-05-22T22:37:18.549Z,20.85
2019-05-22T22:42:28.302Z,21.37
2019-05-22T22:44:59.508Z,20.55
2019-05-22T22:47:39.220Z,22.02
2019-05-22T22:50:09.131Z,24.90
2019-05-22T22:52:39.424Z,20.12
2019-05-22T22:55:13.591Z,19.30
2019-05-22T22:57:43.692Z,21.97
2019-05-22T23:05:18.596Z,23.62
2019-05-22T23:07:48.543Z,23.85
2019-05-22T23:10:20.939Z,25.70
2019-05-22T23:12:55.087Z,22.15
2019-05-22T23:15:25.908Z,22.10
2019-05-22T23:17:55.462Z,24.05
2019-05-22T23:20:22.400Z,22.25
2019-05-22T23:22:49.294Z,23.50
2019-05-22T23:25:20.605Z,25.08
2019-05-22T23:27:50.532Z,25.55
2019-05-22T23:30:20.937Z,24.72
2019-05-22T23:32:53.758Z,22.82
2019-05-22T23:35:25.030Z,23.32
2019-05-22T23:37:54.311Z,24.18
2019-05-22T23:40:31.064Z,24.65
2019-05-22T23:43:01.414Z,27.85
2019-05-22T23:45:30.434Z,23.30
2019-05-22T23:48:16.422Z,23.80
2019-05-22T23:53:17.773Z,27.55
2019-05-22T23:55:48.162Z,25.40
2019-05-22T23:58:19.564Z,23.90
